Waskesiu Lake, Canada
Current Conditions -  °F | °C
As of 12:00 PM on Thursday 29 Jan 2015 (Local Time) from CYPA Reporting Station
Light Snow Light Snow  
Wind Chill: -8°   Ceiling: 1200
Heat Index:   Visibility: 12mi
Dew Point: -2°   Wind: 6mph
Humidity: 78%   Direction: 190°S
Pressure: 30.52"   Gusts: NA
Location:  53.92°N, 106.08°W
Report Text: CYPA 291800Z 19005KT 12SM -SN OVC012 M16/M19 A3052 RMK SC8 SLP377
Loading
Personal Weather Stations






























Interactive Weather Map New forecast layout! Learn more

10-Day Weather Forecast

Advertisements
Track Severe Weather on mobile